createdAt,value
2019-05-26T00:07:52.035Z,16.04
2019-05-26T00:16:13.277Z,15.97
2019-05-26T00:24:35.272Z,15.86
2019-05-26T00:32:56.413Z,15.80
2019-05-26T00:41:17.546Z,15.68
2019-05-26T00:49:38.776Z,15.63
2019-05-26T00:57:59.921Z,15.61
2019-05-26T01:06:21.967Z,15.56
2019-05-26T01:14:43.068Z,15.46
2019-05-26T01:23:04.241Z,15.40
2019-05-26T01:31:25.743Z,15.33
2019-05-26T01:39:47.192Z,15.19
2019-05-26T01:48:08.648Z,15.08
2019-05-26T01:56:29.768Z,15.03
2019-05-26T02:04:51.347Z,15.03
2019-05-26T02:13:12.574Z,15.05
2019-05-26T02:21:34.063Z,15.05
2019-05-26T02:29:55.277Z,15.00
2019-05-26T02:38:17.436Z,15.13
2019-05-26T02:46:38.909Z,15.28
2019-05-26T02:55:00.378Z,15.46
2019-05-26T03:03:21.543Z,15.56
2019-05-26T03:11:42.759Z,15.48
2019-05-26T03:20:04.246Z,15.53
2019-05-26T03:28:25.647Z,15.48
2019-05-26T03:36:46.781Z,15.39
2019-05-26T03:45:08.302Z,15.42
2019-05-26T03:53:29.785Z,15.36
2019-05-26T04:01:51.022Z,15.38
2019-05-26T04:10:12.142Z,15.42
2019-05-26T04:18:34.274Z,15.52
2019-05-26T04:26:55.486Z,15.51
2019-05-26T04:35:16.621Z,15.66
2019-05-26T04:43:37.867Z,15.84
2019-05-26T04:51:59.981Z,15.86
2019-05-26T05:00:21.502Z,16.03
2019-05-26T05:08:42.646Z,15.91
2019-05-26T05:17:04.766Z,15.96
2019-05-26T05:25:26.273Z,16.19
2019-05-26T05:33:47.417Z,16.51
2019-05-26T05:42:08.837Z,16.75
2019-05-26T05:50:30.083Z,16.85
2019-05-26T05:58:52.342Z,17.02
2019-05-26T06:07:13.860Z,17.19
2019-05-26T06:15:35.012Z,17.19
2019-05-26T06:32:22.611Z,17.21
2019-05-26T06:49:10.586Z,17.21
2019-05-26T06:57:32.263Z,17.35
2019-05-26T07:05:54.022Z,17.52
2019-05-26T07:14:15.276Z,17.63
2019-05-26T07:22:51.887Z,18.06
2019-05-26T07:31:13.552Z,18.21
2019-05-26T07:39:34.794Z,18.46
2019-05-26T07:48:01.984Z,18.22
2019-05-26T07:56:27.530Z,18.78
2019-05-26T08:05:00.968Z,18.75
2019-05-26T08:13:37.375Z,19.29
2019-05-26T08:30:21.446Z,20.01
2019-05-26T08:38:42.729Z,19.92
2019-05-26T08:47:05.308Z,20.45
2019-05-26T08:55:28.113Z,20.86
2019-05-26T09:03:49.526Z,20.92
2019-05-26T09:12:11.293Z,20.97
2019-05-26T09:20:32.474Z,20.96
2019-05-26T09:28:53.636Z,21.37
2019-05-26T09:37:14.761Z,21.27
2019-05-26T09:45:35.879Z,21.36
2019-05-26T10:02:24.009Z,21.42
2019-05-26T10:10:45.720Z,21.21
2019-05-26T10:19:07.146Z,21.61
2019-05-26T10:27:29.277Z,21.67
2019-05-26T10:35:51.022Z,22.02
2019-05-26T10:44:13.101Z,21.79
2019-05-26T10:52:34.500Z,21.86
2019-05-26T11:00:55.641Z,22.18
2019-05-26T11:09:17.036Z,22.44
2019-05-26T11:17:38.545Z,22.50
2019-05-26T11:25:59.758Z,23.06
2019-05-26T11:34:21.025Z,23.07
2019-05-26T11:42:44.812Z,23.22
2019-05-26T11:51:05.285Z,23.53
2019-05-26T11:59:26.401Z,24.06
2019-05-26T12:07:48.351Z,24.27
2019-05-26T12:16:09.537Z,24.02
2019-05-26T12:24:31.813Z,24.02
2019-05-26T12:32:53.082Z,24.07
2019-05-26T12:41:14.209Z,24.09
2019-05-26T12:49:35.324Z,24.08
2019-05-26T12:57:56.869Z,23.76
2019-05-26T13:06:18.371Z,24.20
2019-05-26T13:14:39.848Z,24.09
2019-05-26T13:23:01.000Z,24.29
2019-05-26T13:31:22.431Z,24.55
2019-05-26T13:39:43.583Z,24.48
2019-05-26T13:48:04.699Z,25.11
2019-05-26T13:56:30.679Z,25.12
2019-05-26T14:04:51.787Z,25.57
2019-05-26T14:13:13.030Z,25.24
2019-05-26T14:30:00.766Z,24.38
2019-05-26T14:38:22.301Z,24.32
2019-05-26T14:46:43.595Z,23.92
2019-05-26T15:03:31.172Z,24.03
2019-05-26T15:11:52.625Z,24.31
2019-05-26T15:20:14.081Z,24.20
2019-05-26T15:28:35.285Z,24.09
2019-05-26T15:36:56.770Z,24.15
2019-05-26T15:45:18.253Z,23.89
2019-05-26T15:53:39.705Z,23.82
2019-05-26T16:02:00.982Z,23.69
2019-05-26T16:10:22.184Z,23.72
2019-05-26T16:18:43.378Z,23.43
2019-05-26T16:27:18.746Z,23.63
2019-05-26T16:35:28.465Z,23.41
2019-05-26T16:43:53.192Z,23.34
2019-05-26T16:52:15.774Z,23.28
2019-05-26T17:00:38.005Z,22.96
2019-05-26T17:08:59.258Z,22.79
2019-05-26T17:17:20.526Z,23.06
2019-05-26T17:25:41.651Z,23.06
2019-05-26T17:34:02.796Z,22.85
2019-05-26T17:42:24.050Z,22.64
2019-05-26T17:50:45.306Z,22.96
2019-05-26T17:59:06.448Z,22.79
2019-05-26T18:07:27.598Z,22.80
2019-05-26T18:15:49.813Z,22.70
2019-05-26T18:24:10.946Z,22.73
2019-05-26T18:32:32.456Z,22.67
2019-05-26T18:40:53.909Z,22.66
2019-05-26T18:49:15.057Z,22.76
2019-05-26T18:57:36.270Z,22.54
2019-05-26T19:05:57.423Z,22.57
2019-05-26T19:14:18.538Z,22.22
2019-05-26T19:22:39.986Z,22.19
2019-05-26T19:31:01.212Z,21.98
2019-05-26T19:39:22.460Z,21.70
2019-05-26T19:47:43.997Z,21.90
2019-05-26T19:56:05.127Z,21.91
2019-05-26T20:04:26.704Z,21.81
2019-05-26T20:12:48.149Z,21.62
2019-05-26T20:21:09.301Z,21.45
2019-05-26T20:29:30.411Z,21.39
2019-05-26T20:37:51.713Z,21.36
2019-05-26T20:46:16.080Z,21.16
2019-05-26T20:54:37.557Z,21.14
2019-05-26T21:02:58.758Z,21.23
2019-05-26T21:11:20.941Z,21.17
2019-05-26T21:19:42.431Z,21.09
2019-05-26T21:28:03.578Z,21.13
2019-05-26T21:36:24.734Z,21.01
2019-05-26T21:44:46.747Z,20.97
2019-05-26T21:53:11.802Z,20.73
2019-05-26T22:01:32.929Z,20.63
2019-05-26T22:09:54.065Z,20.39
2019-05-26T22:18:15.605Z,20.46
2019-05-26T22:26:36.760Z,20.40
2019-05-26T22:34:58.071Z,20.17
2019-05-26T22:43:19.489Z,20.07
2019-05-26T22:51:40.757Z,19.99
2019-05-26T23:00:01.903Z,19.94
2019-05-26T23:08:23.154Z,19.88
2019-05-26T23:16:44.638Z,19.82
2019-05-26T23:25:05.746Z,19.67
2019-05-26T23:33:28.268Z,19.57
2019-05-26T23:41:49.545Z,19.64
2019-05-26T23:50:10.797Z,19.51
2019-05-26T23:58:32.063Z,19.57
